Everhartville, Pennsylvania
Current Conditions -  °F | °C
As of 12:56 PM on Thursday 18 Dec 2014 (Local Time) from KCXY Reporting Station
Overcast Overcast  
Wind Chill: -3°   Ceiling: 3400
Heat Index:   Visibility: 10mi
Dew Point: -6°   Wind: 15mph
Humidity: 57%   Direction: 300°WNW
Pressure: 30.1"   Gusts: NA
Location:  40.4932°N, 77.217°W
Report Text: KCXY 181756Z 30013KT 10SM OVC034 02/M06 A3010 RMK AO2 SLP195 T00221056 10028 20011 56010
Loading
Personal Weather Stations






























Interactive Weather Map New forecast layout! Learn more

10-Day Weather Forecast

Advertisements
Track Severe Weather on mobile